This is the latest recevied weather packets stored in our database for station/object GW1490. If no packets are shown the sender has not sent any weather packets the latest 10 day(s).
| Time | Temp. | Humidity | Pressure | Rain* | Wind** | Luminosity | Snow |
|---|---|---|---|---|---|---|---|
| 1777782283 | 2.78° C | 91% | 1000.3 hPa | 0 mm | - | - | - |
| 1777781903 | 3.33° C | 90% | 1000 hPa | 0 mm | - | - | - |
| 1777781183 | 3.33° C | 88% | 1000 hPa | 0 mm | - | - | - |
| 1777780492 | 3.33° C | 87% | 1000 hPa | 0 mm | - | - | - |
| 1777779736 | 3.89° C | 85% | 1000 hPa | 0 mm | - | - | - |
| 1777777224 | 4.44° C | 81% | 1000 hPa | 0 mm | - | - | - |
| 1777775778 | 5° C | 79% | 1000 hPa | 0 mm | - | - | - |
| 1777771814 | 8.89° C | 62% | 998.9 hPa | 0 mm | - | - | - |
| 1777769324 | 9.44° C | 59% | 998.3 hPa | 0 mm | - | - | - |
| 1777767495 | 10.56° C | 54% | 997.9 hPa | 0 mm | - | - | - |
| 1777765721 | 11.11° C | 49% | 997.6 hPa | 0 mm | - | - | - |
| 1777763532 | 11.67° C | 49% | 997.2 hPa | 0 mm | - | - | - |
| 1777758851 | 12.22° C | 45% | 997.2 hPa | 0 mm | - | - | - |
| 1777755634 | 12.78° C | 48% | 996.9 hPa | 0 mm | - | - | - |
| 1777751654 | 12.78° C | 48% | 997.2 hPa | 0 mm | - | - | - |
| 1777750969 | 12.22° C | 46% | 997.2 hPa | 0 mm | - | - | - |
| 1777746280 | 11.67° C | 48% | 997.9 hPa | 0 mm | - | - | - |
| 1777745574 | 11.67° C | 57% | 997.9 hPa | 0 mm | - | - | - |
| 1777737984 | 11.67° C | 52% | 998.6 hPa | 0 mm | - | - | - |
| 1777735839 | 11.67° C | 51% | 998.9 hPa | 0 mm | - | - | - |
| 1777735453 | 11.11° C | 53% | 998.6 hPa | 0 mm | - | - | - |
| 1777734042 | 11.67° C | 64% | 998.9 hPa | 0 mm | - | - | - |
| 1777732610 | 10° C | 64% | 998.9 hPa | 0 mm | - | - | - |
| 1777727567 | 6.11° C | 99% | 998.9 hPa | 0 mm | - | - | - |
| 1777726834 | 5° C | 99% | 999.3 hPa | 0 mm | - | - | - |
* Rain since midnight (hover to see other rain measurements)
** Current wind speed in m/s (hover to see current wind gust speed)